createdAt,value
2023-01-23T00:03:37.093Z,7.50
2023-01-23T00:08:42.899Z,7.20
2023-01-23T00:13:47.309Z,7.20
2023-01-23T00:18:52.784Z,6.70
2023-01-23T00:23:59.154Z,7.20
2023-01-23T00:29:05.051Z,7.20
2023-01-23T00:34:12.965Z,7.20
2023-01-23T00:39:21.423Z,7.50
2023-01-23T00:44:25.643Z,7.70
2023-01-23T00:49:30.204Z,7.30
2023-01-23T00:54:36.242Z,7.70
2023-01-23T00:59:40.119Z,6.60
2023-01-23T01:04:44.225Z,7.70
2023-01-23T01:09:48.345Z,7.80
2023-01-23T01:14:53.921Z,7.60
2023-01-23T01:19:58.043Z,7.60
2023-01-23T01:25:02.182Z,7.10
2023-01-23T01:30:07.204Z,7.40
2023-01-23T01:35:11.781Z,7.60
2023-01-23T01:40:19.758Z,7.10
2023-01-23T01:46:01.640Z,7.00
2023-01-23T01:51:15.015Z,7.00
2023-01-23T01:56:20.640Z,7.60
2023-01-23T02:01:25.261Z,6.60
2023-01-23T02:06:29.404Z,7.30
2023-01-23T02:11:33.939Z,6.30
2023-01-23T02:16:41.397Z,7.10
2023-01-23T02:21:50.280Z,7.30
2023-01-23T02:26:55.861Z,6.70
2023-01-23T02:32:01.574Z,6.50
2023-01-23T02:37:07.950Z,7.30
2023-01-23T02:42:12.865Z,6.60
2023-01-23T02:47:22.021Z,6.40
2023-01-23T02:52:26.267Z,7.00
2023-01-23T02:57:30.279Z,7.20
2023-01-23T03:02:34.443Z,6.60
2023-01-23T03:07:38.561Z,6.50
2023-01-23T03:12:44.020Z,6.50
2023-01-23T03:17:48.893Z,7.20
2023-01-23T03:22:54.148Z,7.10
2023-01-23T03:27:58.282Z,7.00
2023-01-23T03:33:03.020Z,6.60
2023-01-23T03:38:07.460Z,7.00
2023-01-23T03:43:11.701Z,7.50
2023-01-23T03:48:20.747Z,6.60
2023-01-23T03:53:25.700Z,7.00
2023-01-23T03:58:31.160Z,7.80
2023-01-23T04:03:35.894Z,7.00
2023-01-23T04:08:40.860Z,6.70
2023-01-23T04:13:47.159Z,6.90
2023-01-23T04:18:51.723Z,6.90
2023-01-23T04:23:55.842Z,7.60
2023-01-23T04:28:59.979Z,7.10
2023-01-23T04:34:04.820Z,7.00
2023-01-23T04:39:09.160Z,7.10
2023-01-23T04:44:23.227Z,7.60
2023-01-23T04:49:50.239Z,7.40
2023-01-23T04:54:55.320Z,6.60
2023-01-23T05:00:00.548Z,7.50
2023-01-23T05:05:06.825Z,7.40
2023-01-23T05:10:11.840Z,7.70
2023-01-23T05:15:17.679Z,7.30
2023-01-23T05:20:24.048Z,7.60
2023-01-23T05:25:29.369Z,7.60
2023-01-23T05:30:34.670Z,7.20
2023-01-23T05:35:52.162Z,7.80
2023-01-23T05:40:56.414Z,8.30
2023-01-23T05:46:26.452Z,7.40
2023-01-23T05:51:34.313Z,8.10
2023-01-23T05:56:38.782Z,7.40
2023-01-23T06:02:01.420Z,7.40
2023-01-23T06:07:34.121Z,7.80
2023-01-23T06:12:42.443Z,7.10
2023-01-23T06:17:46.658Z,7.30
2023-01-23T06:22:51.352Z,7.10
2023-01-23T06:27:55.463Z,7.40
2023-01-23T06:33:00.621Z,7.10
2023-01-23T06:38:10.779Z,7.60
2023-01-23T06:43:15.741Z,6.70
2023-01-23T06:48:19.982Z,6.80
2023-01-23T06:53:24.616Z,7.50
2023-01-23T06:58:29.500Z,8.10
2023-01-23T07:03:33.725Z,7.80
2023-01-23T07:08:37.942Z,7.70
2023-01-23T07:13:42.283Z,6.80
2023-01-23T07:18:47.041Z,8.00
2023-01-23T07:23:51.486Z,7.00
2023-01-23T07:28:55.638Z,7.50
2023-01-23T07:33:59.481Z,6.90
2023-01-23T07:39:03.588Z,8.00
2023-01-23T07:44:07.399Z,8.60
2023-01-23T07:49:11.754Z,8.90
2023-01-23T07:54:15.695Z,9.30
2023-01-23T07:59:20.014Z,10.10
2023-01-23T08:04:23.955Z,9.20
2023-01-23T08:09:27.989Z,10.10
2023-01-23T08:14:32.324Z,10.70
2023-01-23T08:19:36.565Z,10.20
2023-01-23T08:24:40.455Z,9.20
2023-01-23T08:29:44.742Z,8.90
2023-01-23T08:34:49.275Z,9.70
2023-01-23T08:39:53.431Z,9.60
2023-01-23T08:44:57.157Z,9.70
2023-01-23T08:50:01.164Z,9.90
2023-01-23T08:55:05.608Z,9.30
2023-01-23T09:00:10.969Z,10.40
2023-01-23T09:05:15.300Z,10.20
2023-01-23T09:10:19.691Z,9.70
2023-01-23T09:15:24.085Z,9.70
2023-01-23T09:20:29.668Z,9.80
2023-01-23T09:25:33.692Z,10.90
2023-01-23T09:30:37.741Z,9.60
2023-01-23T09:35:42.081Z,9.70
2023-01-23T09:40:52.371Z,10.00
2023-01-23T09:46:28.409Z,9.60
2023-01-23T09:51:39.194Z,9.50
2023-01-23T09:56:46.911Z,9.90
2023-01-23T10:01:56.894Z,8.80
2023-01-23T10:07:23.006Z,9.10
2023-01-23T10:12:40.153Z,9.60
2023-01-23T10:18:04.014Z,8.60
2023-01-23T10:23:40.293Z,9.00
2023-01-23T10:28:44.412Z,9.20
2023-01-23T10:33:56.766Z,8.60
2023-01-23T10:39:10.732Z,9.90
2023-01-23T10:44:19.815Z,9.20
2023-01-23T10:49:33.721Z,9.50
2023-01-23T10:54:47.239Z,9.40
2023-01-23T11:00:36.137Z,9.00
2023-01-23T11:05:52.627Z,9.40
2023-01-23T11:11:16.079Z,10.10
2023-01-23T11:16:22.626Z,8.60
2023-01-23T11:21:34.405Z,9.40
2023-01-23T11:26:39.261Z,9.40
2023-01-23T11:31:43.915Z,9.40
2023-01-23T11:37:03.151Z,9.40
2023-01-23T11:42:11.821Z,9.90
2023-01-23T11:47:39.785Z,9.70
2023-01-23T11:53:07.805Z,8.90
2023-01-23T11:58:50.663Z,9.00
2023-01-23T12:04:26.680Z,9.90
2023-01-23T12:10:03.054Z,9.10
2023-01-23T12:15:27.121Z,9.30
2023-01-23T12:20:46.139Z,11.20
2023-01-23T12:26:08.152Z,12.10
2023-01-23T12:31:41.409Z,10.90
2023-01-23T12:37:08.452Z,11.00
2023-01-23T12:42:22.561Z,10.30
2023-01-23T12:47:45.023Z,10.60
2023-01-23T12:53:21.663Z,10.90
2023-01-23T12:58:28.581Z,10.90
2023-01-23T13:03:55.135Z,10.40
2023-01-23T13:09:16.802Z,10.90
2023-01-23T13:15:06.875Z,11.50
2023-01-23T13:20:47.350Z,11.40
2023-01-23T13:26:12.965Z,11.10
2023-01-23T13:31:45.586Z,11.10
2023-01-23T13:36:51.783Z,11.50
2023-01-23T13:42:14.663Z,11.30
2023-01-23T14:22:28.700Z,11.90
2023-01-23T14:28:17.883Z,11.80
2023-01-23T14:33:22.620Z,11.70
2023-01-23T14:38:33.799Z,11.50
2023-01-23T14:43:38.862Z,12.30
2023-01-23T14:48:45.462Z,11.40
2023-01-23T14:54:01.397Z,11.80
2023-01-23T14:59:21.985Z,11.70
2023-01-23T15:04:29.566Z,11.50
2023-01-23T15:09:43.142Z,12.50
2023-01-23T15:14:47.281Z,12.90
2023-01-23T15:19:55.832Z,11.60
2023-01-23T15:25:28.810Z,12.50
2023-01-23T15:30:48.808Z,12.20
2023-01-23T15:35:53.449Z,12.30
2023-01-23T15:40:59.645Z,12.20
2023-01-23T15:46:04.202Z,14.20
2023-01-23T15:51:11.788Z,13.40
2023-01-23T15:56:28.487Z,13.80
2023-01-23T16:01:34.406Z,13.20
2023-01-23T16:06:39.749Z,13.80
2023-01-23T16:11:44.601Z,14.40
2023-01-23T16:16:49.061Z,16.50
2023-01-23T16:22:04.336Z,17.00
2023-01-23T16:27:18.585Z,18.30
2023-01-23T16:32:23.374Z,17.80
2023-01-23T16:37:27.586Z,17.50
2023-01-23T16:42:32.282Z,18.70
2023-01-23T16:47:36.863Z,17.30
2023-01-23T16:52:44.265Z,16.50
2023-01-23T16:57:55.467Z,16.90
2023-01-23T17:03:04.818Z,16.30
2023-01-23T17:08:21.165Z,16.70
2023-01-23T17:13:27.049Z,17.70
2023-01-23T17:18:36.968Z,17.50
2023-01-23T17:23:41.435Z,16.70
2023-01-23T17:28:47.295Z,18.70
2023-01-23T17:33:56.840Z,19.30
2023-01-23T17:39:01.789Z,19.30
2023-01-23T17:44:06.244Z,19.10
2023-01-23T17:49:33.472Z,18.50
2023-01-23T17:54:39.555Z,19.60
2023-01-23T17:59:46.247Z,18.40
2023-01-23T18:05:00.753Z,18.50
2023-01-23T18:10:08.194Z,19.50
2023-01-23T18:15:30.029Z,20.00
2023-01-23T18:20:41.386Z,20.60
2023-01-23T18:25:47.748Z,20.50
2023-01-23T18:31:01.442Z,17.90
2023-01-23T18:36:23.406Z,19.90
2023-01-23T18:41:30.407Z,19.90
2023-01-23T18:46:36.564Z,21.10
2023-01-23T18:52:13.723Z,23.40
2023-01-23T18:57:44.800Z,22.20
2023-01-23T19:02:57.828Z,21.00
2023-01-23T19:08:03.926Z,22.40
2023-01-23T19:13:30.566Z,21.70
2023-01-23T19:18:41.910Z,21.80
2023-01-23T19:28:54.870Z,20.70
2023-01-23T19:34:05.189Z,21.60
2023-01-23T19:39:12.153Z,21.40
2023-01-23T19:44:20.838Z,21.10
2023-01-23T19:49:28.442Z,20.90
2023-01-23T19:54:34.590Z,21.50
2023-01-23T19:59:40.413Z,19.60
2023-01-23T20:04:47.751Z,20.70
2023-01-23T20:09:54.311Z,20.50
2023-01-23T20:14:59.916Z,20.50
2023-01-23T20:20:12.427Z,20.50
2023-01-23T20:25:19.258Z,19.50
2023-01-23T20:30:27.115Z,18.20
2023-01-23T20:35:33.179Z,19.00
2023-01-23T20:40:40.026Z,17.80
2023-01-23T20:45:50.513Z,18.60
2023-01-23T20:51:00.008Z,17.60
2023-01-23T20:56:11.577Z,18.50
2023-01-23T21:01:21.535Z,18.40
2023-01-23T21:06:27.501Z,18.40
2023-01-23T21:11:33.308Z,17.80
2023-01-23T21:16:39.456Z,17.10
2023-01-23T21:21:43.837Z,19.40
2023-01-23T21:26:49.496Z,15.90
2023-01-23T21:31:54.375Z,17.80
2023-01-23T21:36:59.372Z,17.40
2023-01-23T21:42:04.006Z,17.10
2023-01-23T21:47:07.942Z,17.20
2023-01-23T21:52:12.112Z,16.00
2023-01-23T21:57:16.521Z,16.20
2023-01-23T22:02:20.975Z,15.50
2023-01-23T22:07:25.213Z,16.10
2023-01-23T22:12:29.222Z,16.00
2023-01-23T22:17:34.441Z,15.40
2023-01-23T22:22:38.629Z,16.20
2023-01-23T22:27:42.551Z,16.00
2023-01-23T22:32:46.487Z,15.40
2023-01-23T22:37:50.521Z,16.00
2023-01-23T22:42:54.555Z,15.30
2023-01-23T22:47:58.809Z,15.00
2023-01-23T22:53:02.919Z,16.00
2023-01-23T22:58:07.267Z,14.60
2023-01-23T23:03:11.286Z,14.80
2023-01-23T23:08:15.540Z,14.90
2023-01-23T23:13:20.598Z,14.50
2023-01-23T23:18:24.830Z,14.80
2023-01-23T23:23:29.433Z,15.20
2023-01-23T23:28:34.544Z,14.50
2023-01-23T23:33:38.775Z,15.00
2023-01-23T23:38:42.718Z,15.50
2023-01-23T23:43:46.915Z,14.20
2023-01-23T23:48:50.832Z,14.30
2023-01-23T23:53:55.919Z,15.20
2023-01-23T23:58:59.873Z,14.10
